Time;durP1;ratioP1;P1;durP2;ratioP2;P2;SDS_P1;SDS_P2;PMS_P1;PMS_P2;Temp;Humidity;BMP_temperature;BMP_pressure;BME280_temperature;BME280_humidity;BME280_pressure;Samples;Min_cycle;Max_cycle;Signal;HPM_P1;HPM_P2
2022/11/24 00:01:51;;;;;;;;;;;;;;;;;;5059266;28;19929;-81
2022/11/24 00:04:17;;;;;;;;;;;;;;;;;;5061300;28;19980;-80
2022/11/24 00:06:45;;;;;;;;;;;;;;;;;;5062690;28;19925;-80
2022/11/24 00:09:11;;;;;;;;;;;;;;;;;;5066331;28;19929;-81
2022/11/24 00:11:38;;;;;;;;;;;;;;;;;;5064221;28;19971;-79
2022/11/24 00:14:05;;;;;;;;;;;;;;;;;;5065687;28;19984;-81
2022/11/24 00:16:32;;;;;;;;;;;;;;;;;;5066829;28;19953;-78
2022/11/24 00:19:00;;;;;;;;;;;;;;;;;;5064413;28;19925;-80
2022/11/24 00:21:29;;;;;;;;;;;;;;;;;;5058585;28;19982;-79
2022/11/24 00:23:57;;;;;;;;;;;;;;;;;;5057240;28;19994;-80
2022/11/24 00:26:25;;;;;;;;;;;;;;;;;;5057278;28;19932;-82
2022/11/24 00:28:52;;;;;;;;;;;;;;;;;;5056562;28;20011;-80
2022/11/24 00:31:19;;;;;;;;;;;;;;;;;;5056663;28;19960;-80
2022/11/24 00:33:46;;;;;;;;;;;;;;;;;;5056173;28;19980;-80
2022/11/24 00:36:13;;;;;;;;;;;;;;;;;;5058770;28;20074;-80
2022/11/24 00:38:41;;;;;;;;;;;;;;;;;;5057908;28;19968;-80
2022/11/24 00:41:09;;;;;;;;;;;;;;;;;;5038382;28;19925;-80
2022/11/24 00:43:35;;;;;;;;;;;;;;;;;;5037992;28;20394;-79
2022/11/24 00:46:02;;;;;;;;;;;;;;;;;;5038470;28;20020;-81
2022/11/24 00:48:28;;;;;;;;;;;;;;;;;;5040563;28;20273;-80
2022/11/24 00:50:58;;;;;;;;;;;;;;;;;;5061813;28;19952;-79
2022/11/24 00:53:25;;;;;;;;;;;;;;;;;;5059944;28;19955;-80
2022/11/24 00:55:51;;;;;;;;;;;;;;;;;;5064047;28;19932;-81
2022/11/24 00:58:19;;;;;;;;;;;;;;;;;;5079715;28;20441;-80
2022/11/24 01:00:46;;;;;;;;;;;;;;;;;;5081445;28;19931;-82
2022/11/24 01:03:12;;;;;;;;;;;;;;;;;;5079384;28;19929;-82
2022/11/24 01:05:39;;;;;;;;;;;;;;;;;;5063821;28;20023;-80
2022/11/24 01:08:06;;;;;;;;;;;;;;;;;;5059175;28;19935;-80
2022/11/24 01:10:33;;;;;;;;;;;;;;;;;;5058248;28;19925;-79
2022/11/24 01:13:00;;;;;;;;;;;;;;;;;;5057181;28;19931;-79
2022/11/24 01:15:30;;;;;;;;;;;;;;;;;;5058279;28;19956;-80
2022/11/24 01:17:57;;;;;;;;;;;;;;;;;;5057266;28;19924;-79
2022/11/24 01:20:24;;;;;;;;;;;;;;;;;;5057344;28;19952;-80
2022/11/24 01:23:28;;;;;;;;;;;;;;;;;;5058445;28;20330;-79
2022/11/24 01:25:59;;;;;;;;;;;;;;;;;;5027678;28;20414;-82
2022/11/24 01:28:26;;;;;;;;;;;;;;;;;;5058312;28;19931;-80
2022/11/24 01:31:00;;;;;;;;;;;;;;;;;;5058102;28;19931;-79
2022/11/24 01:33:27;;;;;;;;;;;;;;;;;;5059226;28;19924;-80
2022/11/24 01:35:54;;;;;;;;;;;;;;;;;;5058823;28;19925;-80
2022/11/24 01:38:21;;;;;;;;;;;;;;;;;;5057236;28;19924;-80
2022/11/24 01:40:47;;;;;;;;;;;;;;;;;;5058141;28;20024;-80
2022/11/24 01:43:15;;;;;;;;;;;;;;;;;;5057547;28;19932;-79
2022/11/24 01:45:42;;;;;;;;;;;;;;;;;;5057114;28;19980;-81
2022/11/24 01:48:17;;;;;;;;;;;;;;;;;;5058499;28;19925;-81
2022/11/24 01:50:44;;;;;;;;;;;;;;;;;;5058982;28;20277;-81
2022/11/24 01:53:12;;;;;;;;;;;;;;;;;;5057988;28;19925;-81
2022/11/24 01:55:39;;;;;;;;;;;;;;;;;;5058292;28;19975;-78
2022/11/24 01:58:07;;;;;;;;;;;;;;;;;;5057087;28;19932;-80
2022/11/24 02:00:35;;;;;;;;;;;;;;;;;;5058530;28;19925;-80
2022/11/24 02:03:01;;;;;;;;;;;;;;;;;;5057594;28;19929;-79
2022/11/24 02:05:32;;;;;;;;;;;;;;;;;;5058331;28;20458;-79
2022/11/24 02:08:00;;;;;;;;;;;;;;;;;;5057312;28;19924;-80
2022/11/24 02:10:26;;;;;;;;;;;;;;;;;;5058833;28;19974;-80
2022/11/24 02:13:13;;;;;;;;;;;;;;;;;;5067147;28;19960;-81
2022/11/24 02:15:39;;;;;;;;;;;;;;;;;;5042130;28;20011;-81
2022/11/24 02:18:06;;;;;;;;;;;;;;;;;;5057566;28;20210;-81
2022/11/24 02:20:34;;;;;;;;;;;;;;;;;;5065563;28;20008;-80
2022/11/24 02:23:04;;;;;;;;;;;;;;;;;;5066530;28;20030;-81
2022/11/24 02:25:32;;;;;;;;;;;;;;;;;;5067049;28;19925;-83
2022/11/24 02:28:01;;;;;;;;;;;;;;;;;;5066943;28;19988;-81
2022/11/24 02:30:28;;;;;;;;;;;;;;;;;;5066389;28;19925;-81
2022/11/24 02:32:54;;;;;;;;;;;;;;;;;;5065122;28;20011;-81
2022/11/24 02:35:21;;;;;;;;;;;;;;;;;;5065149;28;19964;-81
2022/11/24 02:37:47;;;;;;;;;;;;;;;;;;5066000;28;19968;-81
2022/11/24 02:40:15;;;;;;;;;;;;;;;;;;5067535;28;19931;-81
2022/11/24 02:42:42;;;;;;;;;;;;;;;;;;5065788;28;19925;-79
2022/11/24 02:45:11;;;;;;;;;;;;;;;;;;5060552;28;19979;-81
2022/11/24 02:47:37;;;;;;;;;;;;;;;;;;5058086;28;19925;-81
2022/11/24 02:50:04;;;;;;;;;;;;;;;;;;5058664;28;19986;-81
2022/11/24 02:52:30;;;;;;;;;;;;;;;;;;5057864;28;20055;-81
2022/11/24 02:54:57;;;;;;;;;;;;;;;;;;5058489;28;19991;-80
2022/11/24 02:57:23;;;;;;;;;;;;;;;;;;5057837;28;20031;-82
2022/11/24 02:59:50;;;;;;;;;;;;;;;;;;5059493;28;20007;-79
2022/11/24 03:02:18;;;;;;;;;;;;;;;;;;5058286;28;20445;-82
2022/11/24 03:04:44;;;;;;;;;;;;;;;;;;5058426;28;19925;-79
2022/11/24 03:07:11;;;;;;;;;;;;;;;;;;5042753;28;20425;-81
2022/11/24 03:09:37;;;;;;;;;;;;;;;;;;5037404;28;19925;-82
2022/11/24 03:12:04;;;;;;;;;;;;;;;;;;5050213;28;20437;-81
2022/11/24 03:14:30;;;;;;;;;;;;;;;;;;5057988;28;19956;-80
2022/11/24 03:16:56;;;;;;;;;;;;;;;;;;5057304;28;19929;-82
2022/11/24 03:19:24;;;;;;;;;;;;;;;;;;5058043;28;19948;-81
2022/11/24 03:21:51;;;;;;;;;;;;;;;;;;5058272;28;19979;-79
2022/11/24 03:24:17;;;;;;;;;;;;;;;;;;5059975;28;20001;-82
2022/11/24 03:26:44;;;;;;;;;;;;;;;;;;5057205;28;20012;-81
2022/11/24 03:29:10;;;;;;;;;;;;;;;;;;5057600;28;20012;-82
2022/11/24 03:31:37;;;;;;;;;;;;;;;;;;5057220;28;20027;-81
2022/11/24 03:34:03;;;;;;;;;;;;;;;;;;5057301;28;19925;-81
2022/11/24 03:36:31;;;;;;;;;;;;;;;;;;5057440;28;19925;-81
2022/11/24 03:38:58;;;;;;;;;;;;;;;;;;5056973;28;19986;-81
2022/11/24 03:41:24;;;;;;;;;;;;;;;;;;5057637;28;19960;-82
2022/11/24 03:43:51;;;;;;;;;;;;;;;;;;5057731;28;19931;-82
2022/11/24 03:46:17;;;;;;;;;;;;;;;;;;5056829;28;19924;-79
2022/11/24 03:48:44;;;;;;;;;;;;;;;;;;5057229;28;20384;-82
2022/11/24 03:51:10;;;;;;;;;;;;;;;;;;5058880;28;20400;-81
2022/11/24 03:53:38;;;;;;;;;;;;;;;;;;5060590;28;19996;-81
2022/11/24 03:56:05;;;;;;;;;;;;;;;;;;5062886;28;19960;-82
2022/11/24 03:58:32;;;;;;;;;;;;;;;;;;5059461;28;20351;-81
2022/11/24 04:00:58;;;;;;;;;;;;;;;;;;5073490;28;19925;-78
2022/11/24 04:03:25;;;;;;;;;;;;;;;;;;5068692;28;19920;-77
2022/11/24 04:05:51;;;;;;;;;;;;;;;;;;5067206;28;19919;-80
2022/11/24 04:08:18;;;;;;;;;;;;;;;;;;5067126;28;20071;-81
2022/11/24 04:10:49;;;;;;;;;;;;;;;;;;5074602;28;19913;-80
2022/11/24 04:13:15;;;;;;;;;;;;;;;;;;5074912;28;19935;-80
2022/11/24 04:15:42;;;;;;;;;;;;;;;;;;5066875;28;19960;-81
2022/11/24 04:18:09;;;;;;;;;;;;;;;;;;5058740;28;19925;-79
2022/11/24 04:20:36;;;;;;;;;;;;;;;;;;5057154;28;19996;-81
2022/11/24 04:23:02;;;;;;;;;;;;;;;;;;5056053;28;19925;-81
2022/11/24 04:25:29;;;;;;;;;;;;;;;;;;5054392;28;20400;-82
2022/11/24 04:27:57;;;;;;;;;;;;;;;;;;5054565;28;20024;-80
2022/11/24 04:30:24;;;;;;;;;;;;;;;;;;5034381;28;20008;-80
2022/11/24 04:32:51;;;;;;;;;;;;;;;;;;5034825;28;20015;-79
2022/11/24 04:35:17;;;;;;;;;;;;;;;;;;5054516;28;20029;-79
2022/11/24 04:37:44;;;;;;;;;;;;;;;;;;5054941;28;20326;-80
2022/11/24 04:40:11;;;;;;;;;;;;;;;;;;5054343;28;19994;-80
2022/11/24 04:42:37;;;;;;;;;;;;;;;;;;5055991;28;20032;-81
2022/11/24 04:45:06;;;;;;;;;;;;;;;;;;5055078;28;19929;-79
2022/11/24 04:47:33;;;;;;;;;;;;;;;;;;5055410;28;20016;-81
2022/11/24 04:50:00;;;;;;;;;;;;;;;;;;5055149;28;19976;-80
2022/11/24 04:52:26;;;;;;;;;;;;;;;;;;5055287;28;19936;-81
2022/11/24 04:54:53;;;;;;;;;;;;;;;;;;5054861;28;20327;-81
2022/11/24 04:57:21;;;;;;;;;;;;;;;;;;5054689;28;20471;-81
2022/11/24 04:59:47;;;;;;;;;;;;;;;;;;5055533;28;19959;-80
2022/11/24 05:02:15;;;;;;;;;;;;;;;;;;5061073;28;19980;-82
2022/11/24 05:04:41;;;;;;;;;;;;;;;;;;5062906;28;19956;-80
2022/11/24 05:07:10;;;;;;;;;;;;;;;;;;5064925;28;19925;-81
2022/11/24 05:10:33;;;;;;;;;;;;;;;;;;5061272;28;20370;-80
2022/11/24 05:12:24;;;;;;;;;;;;;;;;;;5059231;28;19924;-81
2022/11/24 05:14:50;;;;;;;;;;;;;;;;;;5053354;28;19970;-80
2022/11/24 05:17:18;;;;;;;;;;;;;;;;;;5054701;28;20438;-79
2022/11/24 05:19:44;;;;;;;;;;;;;;;;;;5053234;28;20362;-81
2022/11/24 05:22:11;;;;;;;;;;;;;;;;;;5053066;28;19925;-80
2022/11/24 05:24:37;;;;;;;;;;;;;;;;;;5052543;28;19983;-80
2022/11/24 05:27:04;;;;;;;;;;;;;;;;;;5052996;28;20007;-81
2022/11/24 05:29:31;;;;;;;;;;;;;;;;;;5052951;28;19932;-81
2022/11/24 05:31:57;;;;;;;;;;;;;;;;;;5053374;28;20067;-79
2022/11/24 05:34:26;;;;;;;;;;;;;;;;;;5055219;28;19924;-80
2022/11/24 05:36:53;;;;;;;;;;;;;;;;;;5056781;28;19924;-79
2022/11/24 05:39:19;;;;;;;;;;;;;;;;;;5057975;28;19924;-82
2022/11/24 05:41:46;;;;;;;;;;;;;;;;;;5057597;28;19925;-79
2022/11/24 05:44:12;;;;;;;;;;;;;;;;;;5058127;28;19971;-81
2022/11/24 05:46:38;;;;;;;;;;;;;;;;;;5058101;28;20082;-81
2022/11/24 05:49:05;;;;;;;;;;;;;;;;;;5057408;28;20346;-81
2022/11/24 05:51:34;;;;;;;;;;;;;;;;;;5057726;28;19929;-81
2022/11/24 05:54:00;;;;;;;;;;;;;;;;;;5057006;28;20008;-79
2022/11/24 05:56:27;;;;;;;;;;;;;;;;;;5057436;28;19964;-81
2022/11/24 05:58:54;;;;;;;;;;;;;;;;;;5057336;28;20027;-80
2022/11/24 06:01:20;;;;;;;;;;;;;;;;;;5058097;28;20334;-79
2022/11/24 06:03:46;;;;;;;;;;;;;;;;;;5051478;28;19957;-81
2022/11/24 06:06:13;;;;;;;;;;;;;;;;;;5038410;28;20012;-81
2022/11/24 06:08:41;;;;;;;;;;;;;;;;;;5048978;28;20015;-81
2022/11/24 06:11:17;;;;;;;;;;;;;;;;;;5058724;28;19928;-82
2022/11/24 06:13:44;;;;;;;;;;;;;;;;;;5057967;28;19931;-82
2022/11/24 06:16:11;;;;;;;;;;;;;;;;;;5057612;28;19925;-81
2022/11/24 06:18:37;;;;;;;;;;;;;;;;;;5057797;28;20150;-79
2022/11/24 06:21:04;;;;;;;;;;;;;;;;;;5057020;28;19925;-79
2022/11/24 06:23:30;;;;;;;;;;;;;;;;;;5057004;28;20284;-79
2022/11/24 06:25:59;;;;;;;;;;;;;;;;;;5057353;28;20520;-83
2022/11/24 06:28:25;;;;;;;;;;;;;;;;;;5057024;28;19972;-81
2022/11/24 06:30:52;;;;;;;;;;;;;;;;;;5060056;28;19959;-81
2022/11/24 06:33:18;;;;;;;;;;;;;;;;;;5059324;28;20016;-80
2022/11/24 06:35:45;;;;;;;;;;;;;;;;;;5059425;28;19925;-81
2022/11/24 06:38:12;;;;;;;;;;;;;;;;;;5058706;28;19929;-81
2022/11/24 06:40:38;;;;;;;;;;;;;;;;;;5057305;28;19970;-80
2022/11/24 06:43:06;;;;;;;;;;;;;;;;;;5056911;28;20371;-82
2022/11/24 06:45:32;;;;;;;;;;;;;;;;;;5060768;28;19975;-79
2022/11/24 06:47:59;;;;;;;;;;;;;;;;;;5065148;28;19932;-82
2022/11/24 06:50:25;;;;;;;;;;;;;;;;;;5063043;28;20013;-80
2022/11/24 06:52:54;;;;;;;;;;;;;;;;;;5064134;28;19959;-81
2022/11/24 06:55:20;;;;;;;;;;;;;;;;;;5063295;28;19952;-81
2022/11/24 06:57:47;;;;;;;;;;;;;;;;;;5067090;28;19963;-78
2022/11/24 07:00:18;;;;;;;;;;;;;;;;;;5069223;28;20269;-82
2022/11/24 07:02:45;;;;;;;;;;;;;;;;;;5066236;28;19959;-79
2022/11/24 07:05:11;;;;;;;;;;;;;;;;;;5050960;28;19960;-82
2022/11/24 07:07:39;;;;;;;;;;;;;;;;;;5061820;28;19928;-79
2022/11/24 07:10:06;;;;;;;;;;;;;;;;;;5063022;28;19980;-79
2022/11/24 07:12:33;;;;;;;;;;;;;;;;;;5060959;28;19980;-79
2022/11/24 07:15:00;;;;;;;;;;;;;;;;;;5059819;28;19925;-80
2022/11/24 07:17:28;;;;;;;;;;;;;;;;;;5057593;28;20018;-80
2022/11/24 07:19:54;;;;;;;;;;;;;;;;;;5058014;28;19929;-80
2022/11/24 07:22:20;;;;;;;;;;;;;;;;;;5058332;28;20020;-80
2022/11/24 07:24:47;;;;;;;;;;;;;;;;;;5058455;28;19968;-80
2022/11/24 07:27:14;;;;;;;;;;;;;;;;;;5057748;28;20016;-80
2022/11/24 07:29:40;;;;;;;;;;;;;;;;;;5057252;28;19932;-79
2022/11/24 07:32:06;;;;;;;;;;;;;;;;;;5057615;28;20410;-80
2022/11/24 07:34:34;;;;;;;;;;;;;;;;;;5057429;28;20012;-79
2022/11/24 07:37:01;;;;;;;;;;;;;;;;;;5057307;28;20433;-77
2022/11/24 07:39:27;;;;;;;;;;;;;;;;;;5058945;28;19951;-79
2022/11/24 07:41:54;;;;;;;;;;;;;;;;;;5057740;28;19924;-80
2022/11/24 07:44:20;;;;;;;;;;;;;;;;;;5057043;28;20032;-79
2022/11/24 07:46:48;;;;;;;;;;;;;;;;;;5057669;28;20008;-80
2022/11/24 07:49:15;;;;;;;;;;;;;;;;;;5058890;28;19932;-81
2022/11/24 07:51:43;;;;;;;;;;;;;;;;;;5061274;28;19932;-79
2022/11/24 07:54:09;;;;;;;;;;;;;;;;;;5059789;28;20070;-79
2022/11/24 07:56:36;;;;;;;;;;;;;;;;;;5059005;28;19971;-78
2022/11/24 07:59:02;;;;;;;;;;;;;;;;;;5059306;28;19967;-81
2022/11/24 08:01:29;;;;;;;;;;;;;;;;;;5058970;28;20280;-80
2022/11/24 08:03:55;;;;;;;;;;;;;;;;;;5039019;28;19925;-80
2022/11/24 08:06:22;;;;;;;;;;;;;;;;;;5047125;28;19925;-81
2022/11/24 08:08:50;;;;;;;;;;;;;;;;;;5061644;28;19960;-78
2022/11/24 08:11:17;;;;;;;;;;;;;;;;;;5061477;28;19925;-80
2022/11/24 08:13:44;;;;;;;;;;;;;;;;;;5063961;28;20339;-79
2022/11/24 08:16:11;;;;;;;;;;;;;;;;;;5064144;28;19952;-79
2022/11/24 08:18:38;;;;;;;;;;;;;;;;;;5063870;28;19952;-80
2022/11/24 08:21:05;;;;;;;;;;;;;;;;;;5064146;28;20264;-79
2022/11/24 08:23:32;;;;;;;;;;;;;;;;;;5063715;28;20015;-79
2022/11/24 08:26:03;;;;;;;;;;;;;;;;;;5055958;28;19937;-79
2022/11/24 08:28:30;;;;;;;;;;;;;;;;;;5054451;28;20360;-81
2022/11/24 08:31:03;;;;;;;;;;;;;;;;;;5035692;28;19952;-82
2022/11/24 08:33:30;;;;;;;;;;;;;;;;;;5035503;28;19936;-80
2022/11/24 08:35:57;;;;;;;;;;;;;;;;;;5034686;28;19925;-81
2022/11/24 08:38:23;;;;;;;;;;;;;;;;;;5033987;28;19979;-81
2022/11/24 08:40:49;;;;;;;;;;;;;;;;;;5043741;28;19991;-80
2022/11/24 08:43:18;;;;;;;;;;;;;;;;;;5054498;28;19928;-81
2022/11/24 08:45:44;;;;;;;;;;;;;;;;;;5054416;28;19951;-80
2022/11/24 08:48:11;;;;;;;;;;;;;;;;;;5051429;28;19975;-81
2022/11/24 08:50:37;;;;;;;;;;;;;;;;;;5053514;28;19925;-80
2022/11/24 08:53:04;;;;;;;;;;;;;;;;;;5054489;28;20355;-79
2022/11/24 08:55:30;;;;;;;;;;;;;;;;;;5054575;28;20019;-80
2022/11/24 08:57:57;;;;;;;;;;;;;;;;;;5055161;28;19954;-79
2022/11/24 09:00:25;;;;;;;;;;;;;;;;;;5064189;28;19979;-81
2022/11/24 09:02:55;;;;;;;;;;;;;;;;;;5075687;28;19921;-81
2022/11/24 09:05:23;;;;;;;;;;;;;;;;;;5075378;28;19936;-83
2022/11/24 09:07:52;;;;;;;;;;;;;;;;;;5074651;28;19924;-81
2022/11/24 09:10:23;;;;;;;;;;;;;;;;;;5064201;28;19928;-80
2022/11/24 09:12:50;;;;;;;;;;;;;;;;;;5060676;28;19931;-80
2022/11/24 09:15:19;;;;;;;;;;;;;;;;;;5058391;28;19928;-81
2022/11/24 09:17:46;;;;;;;;;;;;;;;;;;5059212;28;19925;-81
2022/11/24 09:20:13;;;;;;;;;;;;;;;;;;5057167;28;20004;-78
2022/11/24 09:22:40;;;;;;;;;;;;;;;;;;5058138;28;19929;-79
2022/11/24 09:25:07;;;;;;;;;;;;;;;;;;5056835;28;19925;-85
2022/11/24 09:27:33;;;;;;;;;;;;;;;;;;5062091;28;19980;-79
2022/11/24 09:30:00;;;;;;;;;;;;;;;;;;5059588;28;19963;-84
2022/11/24 09:32:28;;;;;;;;;;;;;;;;;;5062220;28;20451;-84
2022/11/24 09:34:56;;;;;;;;;;;;;;;;;;5060241;28;20380;-84
2022/11/24 09:37:23;;;;;;;;;;;;;;;;;;5062588;28;19929;-84
2022/11/24 09:39:49;;;;;;;;;;;;;;;;;;5075052;28;19912;-85
2022/11/24 09:42:19;;;;;;;;;;;;;;;;;;5074826;28;19947;-79
2022/11/24 09:44:55;;;;;;;;;;;;;;;;;;5067259;28;19947;-79
2022/11/24 09:47:27;;;;;;;;;;;;;;;;;;5069863;28;20518;-78
2022/11/24 09:49:58;;;;;;;;;;;;;;;;;;5063565;28;19947;-81
2022/11/24 09:52:31;;;;;;;;;;;;;;;;;;5058227;28;20012;-79
2022/11/24 09:55:01;;;;;;;;;;;;;;;;;;5057771;28;19955;-79
2022/11/24 09:57:29;;;;;;;;;;;;;;;;;;5057585;28;20016;-80
2022/11/24 10:00:12;;;;;;;;;;;;;;;;;;5056390;28;19924;-79
2022/11/24 10:02:38;;;;;;;;;;;;;;;;;;5056531;28;19932;-80
2022/11/24 10:05:06;;;;;;;;;;;;;;;;;;5044146;28;20015;-79
2022/11/24 10:07:37;;;;;;;;;;;;;;;;;;5042814;28;19970;-78
2022/11/24 10:10:06;;;;;;;;;;;;;;;;;;5056463;28;19931;-78
2022/11/24 10:12:41;;;;;;;;;;;;;;;;;;5056193;28;20062;-79
2022/11/24 10:15:30;;;;;;;;;;;;;;;;;;5057121;28;19980;-78
2022/11/24 10:18:06;;;;;;;;;;;;;;;;;;5056337;28;19988;-78
2022/11/24 10:20:39;;;;;;;;;;;;;;;;;;5056272;28;20031;-79
2022/11/24 10:23:16;;;;;;;;;;;;;;;;;;5055270;28;20443;-79
2022/11/24 10:25:46;;;;;;;;;;;;;;;;;;5057033;28;19931;-79
2022/11/24 10:28:14;;;;;;;;;;;;;;;;;;5054305;28;19925;-80
2022/11/24 10:30:40;;;;;;;;;;;;;;;;;;5054534;28;19931;-81
2022/11/24 10:33:12;;;;;;;;;;;;;;;;;;5056572;28;19967;-80
2022/11/24 10:35:44;;;;;;;;;;;;;;;;;;5056265;28;19928;-82
2022/11/24 10:38:14;;;;;;;;;;;;;;;;;;5057061;28;19925;-80
2022/11/24 10:40:42;;;;;;;;;;;;;;;;;;5056576;28;20556;-79
2022/11/24 10:43:10;;;;;;;;;;;;;;;;;;5056143;28;20028;-80
2022/11/24 10:45:38;;;;;;;;;;;;;;;;;;5056068;28;20415;-79
2022/11/24 10:48:07;;;;;;;;;;;;;;;;;;5056427;28;19925;-80
2022/11/24 10:50:36;;;;;;;;;;;;;;;;;;5055880;28;20023;-81
2022/11/24 10:53:11;;;;;;;;;;;;;;;;;;5056655;28;20049;-79
2022/11/24 10:55:57;;;;;;;;;;;;;;;;;;5056589;28;19942;-79
2022/11/24 10:58:25;;;;;;;;;;;;;;;;;;5056073;28;20001;-80
2022/11/24 11:00:51;;;;;;;;;;;;;;;;;;5054999;28;19925;-78
2022/11/24 11:03:19;;;;;;;;;;;;;;;;;;5054937;28;20007;-80
2022/11/24 11:05:48;;;;;;;;;;;;;;;;;;5054512;28;19924;-79
2022/11/24 11:08:21;;;;;;;;;;;;;;;;;;5051361;28;20379;-79
2022/11/24 11:10:48;;;;;;;;;;;;;;;;;;5050882;28;19925;-79
2022/11/24 11:13:21;;;;;;;;;;;;;;;;;;5047146;28;19976;-78
2022/11/24 11:15:48;;;;;;;;;;;;;;;;;;5050650;28;20346;-80
2022/11/24 11:18:16;;;;;;;;;;;;;;;;;;5053229;28;19925;-79
2022/11/24 11:20:49;;;;;;;;;;;;;;;;;;5067169;28;20167;-81
2022/11/24 11:23:16;;;;;;;;;;;;;;;;;;5062513;28;19947;-78
2022/11/24 11:25:44;;;;;;;;;;;;;;;;;;5082459;28;19931;-78
2022/11/24 11:28:17;;;;;;;;;;;;;;;;;;5064822;28;19968;-79
2022/11/24 11:30:54;;;;;;;;;;;;;;;;;;5065386;28;19925;-78
2022/11/24 11:33:22;;;;;;;;;;;;;;;;;;5062157;28;20013;-79
2022/11/24 11:35:49;;;;;;;;;;;;;;;;;;5060022;28;20402;-79
2022/11/24 11:38:15;;;;;;;;;;;;;;;;;;5058613;28;19928;-79
2022/11/24 11:40:43;;;;;;;;;;;;;;;;;;5058813;28;19960;-79
2022/11/24 11:43:15;;;;;;;;;;;;;;;;;;5059579;28;19971;-81
2022/11/24 11:45:45;;;;;;;;;;;;;;;;;;5058389;28;20418;-79
2022/11/24 11:48:19;;;;;;;;;;;;;;;;;;5056879;28;19924;-79
2022/11/24 11:50:49;;;;;;;;;;;;;;;;;;5054905;28;19975;-78
2022/11/24 11:53:21;;;;;;;;;;;;;;;;;;5057379;28;19996;-80
2022/11/24 11:55:58;;;;;;;;;;;;;;;;;;5056827;28;19996;-79
2022/11/24 11:58:43;;;;;;;;;;;;;;;;;;5056473;28;20031;-80
2022/11/24 12:01:15;;;;;;;;;;;;;;;;;;5037632;28;20325;-79
2022/11/24 12:03:47;;;;;;;;;;;;;;;;;;5038216;28;19925;-79
2022/11/24 12:06:18;;;;;;;;;;;;;;;;;;5038441;28;19987;-79
2022/11/24 12:08:50;;;;;;;;;;;;;;;;;;5046911;28;20003;-79
2022/11/24 12:11:22;;;;;;;;;;;;;;;;;;5056720;28;19925;-79
2022/11/24 12:14:11;;;;;;;;;;;;;;;;;;5054443;28;20020;-79
2022/11/24 12:16:44;;;;;;;;;;;;;;;;;;5051220;28;20530;-80
2022/11/24 12:19:28;;;;;;;;;;;;;;;;;;5042346;28;20309;-79
2022/11/24 12:21:58;;;;;;;;;;;;;;;;;;5052799;28;19976;-80
2022/11/24 12:24:29;;;;;;;;;;;;;;;;;;5053075;28;20096;-81
2022/11/24 12:26:59;;;;;;;;;;;;;;;;;;5053481;28;19992;-80
2022/11/24 12:29:45;;;;;;;;;;;;;;;;;;5053396;28;20431;-80
2022/11/24 12:32:21;;;;;;;;;;;;;;;;;;5053789;28;20707;-79
2022/11/24 12:34:50;;;;;;;;;;;;;;;;;;5055022;28;20015;-79
2022/11/24 12:37:30;;;;;;;;;;;;;;;;;;5056722;28;19975;-79
2022/11/24 12:39:59;;;;;;;;;;;;;;;;;;5054360;28;19925;-79
2022/11/24 12:42:34;;;;;;;;;;;;;;;;;;5052734;28;19971;-79
2022/11/24 12:45:11;;;;;;;;;;;;;;;;;;5057594;28;19925;-80
2022/11/24 12:47:41;;;;;;;;;;;;;;;;;;5058462;28;19924;-79
2022/11/24 12:50:09;;;;;;;;;;;;;;;;;;5072510;28;19947;-79
2022/11/24 12:52:38;;;;;;;;;;;;;;;;;;5062340;28;20399;-79
2022/11/24 12:55:05;;;;;;;;;;;;;;;;;;5059616;28;19974;-81
2022/11/24 12:57:36;;;;;;;;;;;;;;;;;;5057987;28;20024;-80
2022/11/24 13:00:05;;;;;;;;;;;;;;;;;;5061784;28;19971;-79
2022/11/24 13:02:38;;;;;;;;;;;;;;;;;;5064536;28;20012;-77
2022/11/24 13:05:13;;;;;;;;;;;;;;;;;;5047793;28;20386;-78
2022/11/24 13:07:44;;;;;;;;;;;;;;;;;;5059922;28;19992;-80
2022/11/24 13:10:26;;;;;;;;;;;;;;;;;;5059645;28;20471;-83
2022/11/24 13:12:55;;;;;;;;;;;;;;;;;;5062980;28;19960;-79
2022/11/24 13:15:22;;;;;;;;;;;;;;;;;;5057747;28;19992;-79
2022/11/24 13:17:49;;;;;;;;;;;;;;;;;;5058056;28;19988;-84
2022/11/24 13:20:16;;;;;;;;;;;;;;;;;;5058560;28;20025;-78
2022/11/24 13:22:48;;;;;;;;;;;;;;;;;;5058385;28;19925;-77
2022/11/24 13:25:17;;;;;;;;;;;;;;;;;;5058696;28;19979;-79
2022/11/24 13:27:44;;;;;;;;;;;;;;;;;;5056381;28;19955;-78
2022/11/24 13:30:30;;;;;;;;;;;;;;;;;;5056320;28;20031;-79
2022/11/24 13:33:02;;;;;;;;;;;;;;;;;;5055992;28;20011;-79
2022/11/24 13:35:28;;;;;;;;;;;;;;;;;;5055710;28;19925;-80
2022/11/24 13:37:55;;;;;;;;;;;;;;;;;;5055998;28;20457;-79
2022/11/24 13:40:36;;;;;;;;;;;;;;;;;;5056465;28;19968;-79
2022/11/24 13:43:24;;;;;;;;;;;;;;;;;;5056610;28;19932;-79
2022/11/24 13:45:52;;;;;;;;;;;;;;;;;;5057488;28;19928;-79
2022/11/24 13:48:37;;;;;;;;;;;;;;;;;;5060548;28;19931;-79
2022/11/24 13:51:19;;;;;;;;;;;;;;;;;;5074355;28;20054;-79
2022/11/24 13:53:47;;;;;;;;;;;;;;;;;;5069338;28;19932;-79
2022/11/24 13:56:22;;;;;;;;;;;;;;;;;;5053673;28;20280;-78
2022/11/24 13:58:50;;;;;;;;;;;;;;;;;;5055389;28;20380;-78
2022/11/24 14:01:19;;;;;;;;;;;;;;;;;;5056106;28;19929;-80
2022/11/24 14:03:48;;;;;;;;;;;;;;;;;;5058131;28;19928;-78
2022/11/24 14:06:21;;;;;;;;;;;;;;;;;;5055753;28;20449;-79
2022/11/24 14:08:48;;;;;;;;;;;;;;;;;;5055093;28;19988;-80
2022/11/24 14:11:16;;;;;;;;;;;;;;;;;;5054189;28;20339;-79
2022/11/24 14:13:42;;;;;;;;;;;;;;;;;;5056201;28;20012;-79
2022/11/24 14:16:14;;;;;;;;;;;;;;;;;;5058324;28;20051;-79
2022/11/24 14:18:41;;;;;;;;;;;;;;;;;;5058337;28;20043;-80
2022/11/24 14:21:18;;;;;;;;;;;;;;;;;;5063730;28;19932;-79
2022/11/24 14:23:49;;;;;;;;;;;;;;;;;;5077225;28;19952;-80
2022/11/24 14:26:18;;;;;;;;;;;;;;;;;;5078787;28;19925;-80
2022/11/24 14:28:45;;;;;;;;;;;;;;;;;;5078346;28;19962;-80
2022/11/24 14:31:18;;;;;;;;;;;;;;;;;;5077772;28;19964;-80
2022/11/24 14:33:45;;;;;;;;;;;;;;;;;;5077938;28;19925;-80
2022/11/24 14:36:13;;;;;;;;;;;;;;;;;;5079167;28;19920;-80
2022/11/24 14:38:40;;;;;;;;;;;;;;;;;;5078151;28;19958;-80
2022/11/24 14:41:16;;;;;;;;;;;;;;;;;;5078565;28;19924;-79
2022/11/24 14:43:42;;;;;;;;;;;;;;;;;;5079530;28;19929;-79
2022/11/24 14:46:10;;;;;;;;;;;;;;;;;;5078829;28;19936;-78
2022/11/24 14:48:38;;;;;;;;;;;;;;;;;;5079642;28;19925;-78
2022/11/24 14:51:06;;;;;;;;;;;;;;;;;;5079786;28;19971;-79
2022/11/24 14:53:34;;;;;;;;;;;;;;;;;;5079657;28;19943;-79
2022/11/24 14:56:08;;;;;;;;;;;;;;;;;;5078164;28;19909;-80
2022/11/24 14:58:37;;;;;;;;;;;;;;;;;;5075108;28;19931;-78
2022/11/24 15:01:19;;;;;;;;;;;;;;;;;;5077240;28;19934;-77
2022/11/24 15:03:46;;;;;;;;;;;;;;;;;;5072855;28;19909;-78
2022/11/24 15:06:16;;;;;;;;;;;;;;;;;;5075657;28;19936;-78
2022/11/24 15:08:46;;;;;;;;;;;;;;;;;;5075951;28;19932;-79
2022/11/24 15:11:13;;;;;;;;;;;;;;;;;;5077980;28;19916;-79
2022/11/24 15:13:50;;;;;;;;;;;;;;;;;;5078847;28;19969;-78
2022/11/24 15:16:19;;;;;;;;;;;;;;;;;;5077903;28;19924;-79
2022/11/24 15:18:46;;;;;;;;;;;;;;;;;;5075256;28;19913;-78
2022/11/24 15:21:13;;;;;;;;;;;;;;;;;;5071894;28;19970;-79
2022/11/24 15:23:40;;;;;;;;;;;;;;;;;;5077735;28;19943;-78
2022/11/24 15:26:23;;;;;;;;;;;;;;;;;;5077387;28;19947;-78
2022/11/24 15:28:51;;;;;;;;;;;;;;;;;;5076402;28;19925;-77
2022/11/24 15:31:17;;;;;;;;;;;;;;;;;;5073362;28;19964;-78
2022/11/24 15:33:44;;;;;;;;;;;;;;;;;;5072158;28;19940;-78
2022/11/24 15:36:12;;;;;;;;;;;;;;;;;;5072497;28;19925;-79
2022/11/24 15:38:39;;;;;;;;;;;;;;;;;;5068968;28;19913;-78
2022/11/24 15:41:14;;;;;;;;;;;;;;;;;;5075643;28;19916;-77
2022/11/24 15:43:41;;;;;;;;;;;;;;;;;;5072451;28;19956;-79
2022/11/24 15:46:10;;;;;;;;;;;;;;;;;;5071676;28;19936;-79
2022/11/24 15:48:37;;;;;;;;;;;;;;;;;;5077336;28;19913;-78
2022/11/24 15:51:04;;;;;;;;;;;;;;;;;;5078543;28;19916;-78
2022/11/24 15:53:33;;;;;;;;;;;;;;;;;;5077522;28;19935;-78
2022/11/24 15:56:00;;;;;;;;;;;;;;;;;;5075931;28;19934;-78
2022/11/24 15:58:26;;;;;;;;;;;;;;;;;;5075733;28;19919;-78
2022/11/24 16:01:03;;;;;;;;;;;;;;;;;;5077290;28;19952;-79
2022/11/24 16:03:30;;;;;;;;;;;;;;;;;;5077607;28;19913;-79
2022/11/24 16:06:10;;;;;;;;;;;;;;;;;;5077953;28;19935;-79
2022/11/24 16:08:36;;;;;;;;;;;;;;;;;;5077262;28;19992;-78
2022/11/24 16:11:03;;;;;;;;;;;;;;;;;;5068449;28;19929;-79
2022/11/24 16:13:29;;;;;;;;;;;;;;;;;;5072042;28;19925;-78
2022/11/24 16:15:56;;;;;;;;;;;;;;;;;;5076830;28;19925;-78
2022/11/24 16:18:22;;;;;;;;;;;;;;;;;;5076702;28;19984;-78
2022/11/24 16:20:50;;;;;;;;;;;;;;;;;;5075443;28;19953;-78
2022/11/24 16:23:16;;;;;;;;;;;;;;;;;;5075980;28;19913;-78
2022/11/24 16:25:43;;;;;;;;;;;;;;;;;;5076398;28;19917;-78
2022/11/24 16:28:09;;;;;;;;;;;;;;;;;;5074560;28;19932;-80
2022/11/24 16:30:36;;;;;;;;;;;;;;;;;;5074722;28;19961;-79
2022/11/24 16:33:03;;;;;;;;;;;;;;;;;;5075809;28;19944;-79
2022/11/24 16:35:30;;;;;;;;;;;;;;;;;;5070055;28;19925;-78
2022/11/24 16:37:58;;;;;;;;;;;;;;;;;;5067992;28;19913;-78
2022/11/24 16:40:25;;;;;;;;;;;;;;;;;;5065956;28;19933;-79
2022/11/24 16:42:52;;;;;;;;;;;;;;;;;;5069277;28;19924;-84
2022/11/24 16:45:18;;;;;;;;;;;;;;;;;;5062825;28;19925;-80
2022/11/24 16:47:45;;;;;;;;;;;;;;;;;;5063089;28;19968;-85
2022/11/24 16:50:12;;;;;;;;;;;;;;;;;;5071113;28;20040;-80
2022/11/24 16:52:39;;;;;;;;;;;;;;;;;;5073944;28;19924;-83
2022/11/24 16:55:08;;;;;;;;;;;;;;;;;;5067640;28;19932;-77
2022/11/24 16:57:35;;;;;;;;;;;;;;;;;;5070522;28;19924;-77